Latest Weather Observations for Gannett Cay

IDQ60801

Issued at 8:32 am EST Monday 23 October 2017 (issued every 30 minutes, with the page automatically refreshed every 10 minutes)

About weather observations | Map of weather stations | Latest weather observations for QLD | Other Formats
Station Details ID: 200831 Name: GANNET CAY Lat: -21.98 Lon: 152.47 Height: 2.3 m
Data from the previous 72 hours. | See also: Recent months for locations in Queensland
Date/Time
EST
Temp
°C
App
Temp
°C
Dew
Point
°C
Rel
Hum
%
Delta-T
°C
Wind Press
QNH
hPa
Press
MSL
hPa
Rain since
9am
mm
Dir  Spd
km/h
Gust
km/h
Spd
kts
Gust
kts
23/08:30am 25.2 - - - - E 7 9 4 5 1014.0 - -
23/08:29am 25.1 - - - - E 7 7 4 4 1014.0 1014.1 -
23/08:00am 24.1 - - - - ENE 13 17 7 9 1013.2 - -
23/07:30am 24.0 - - - - ENE 13 17 7 9 1013.1 - -
23/07:29am 24.0 - - - - ENE 11 - 6 - - 1013.2 -
23/07:00am 24.0 - - - - NE 11 15 6 8 1012.7 - -
23/06:30am 24.1 - - - - NE 11 13 6 7 1012.4 - -
23/06:29am 23.9 - - - - NE 11 - 6 - - 1012.5 -
23/06:00am 23.7 - - - - ENE 17 19 9 10 1012.0 - -
23/05:30am 23.5 - - - - ENE 19 22 10 12 1011.6 - -
23/05:29am 23.5 - - - - ENE 19 - 10 - - 1011.7 -
23/05:00am 23.4 - - - - ENE 15 19 8 10 1011.5 - -
23/04:30am 23.4 - - - - E 17 20 9 11 1011.3 - -
23/04:29am 23.4 - - - - E 19 - 10 - - 1011.4 -
23/04:00am 23.3 - - - - E 15 19 8 10 1011.2 - -
23/03:30am 23.3 - - - - E 13 15 7 8 1011.1 - -
23/03:29am 23.4 - - - - E 13 - 7 - - 1011.2 -
23/03:00am 23.3 - - - - E 15 20 8 11 1011.0 - -
23/02:30am 23.3 - - - - E 13 17 7 9 1011.2 - -
23/02:29am 23.3 - - - - E 13 - 7 - - 1011.3 -
23/02:00am 23.3 - - - - E 15 20 8 11 1011.1 - -
23/01:30am 23.3 - - - - E 20 26 11 14 1011.2 - -
23/01:29am 23.3 - - - - E 22 - 12 - - 1011.3 -
23/01:00am 23.2 - - - - E 19 22 10 12 1011.6 - -
23/12:30am 23.1 - - - - E 17 20 9 11 1011.9 - -
23/12:29am 23.1 - - - - E 17 - 9 - - 1012.0 -
23/12:00am 23.2 - - - - ESE 19 20 10 11 1012.1 - -
 
Date/Time
EST
Temp
°C
App
Temp
°C
Dew
Point
°C
Rel
Hum
%
Delta-T
°C
Wind Press
QNH
hPa
Press
MSL
hPa
Rain since
9am
mm
Dir  Spd
km/h
Gust
km/h
Spd
kts
Gust
kts
22/11:30pm 23.2 - - - - SE 19 20 10 11 1012.5 - -
22/11:29pm 23.1 - - - - SE 19 - 10 - - 1012.6 -
22/11:00pm 23.2 - - - - ESE 19 22 10 12 1012.7 - -
22/10:30pm 23.2 - - - - ESE 20 24 11 13 1012.8 - -
22/10:29pm 23.2 - - - - ESE 22 - 12 - - 1012.9 -
22/10:00pm 23.3 - - - - ESE 22 28 12 15 1012.8 - -
22/09:30pm 23.2 - - - - ESE 28 32 15 17 1012.3 - -
22/09:29pm 23.2 - - - - ESE 28 - 15 - - 1012.4 -
22/09:00pm 23.2 - - - - ESE 30 33 16 18 1012.1 - -
22/08:30pm 23.1 - - - - ESE 28 33 15 18 1012.2 - -
22/08:29pm 23.0 - - - - ESE 28 - 15 - - 1012.2 -
22/08:00pm 23.1 - - - - SE 30 32 16 17 1012.1 - -
22/07:30pm 23.0 - - - - SE 28 33 15 18 1011.8 - -
22/07:29pm 23.0 - - - - SE 28 - 15 - - 1011.9 -
22/07:00pm 23.0 - - - - SE 26 30 14 16 1011.7 - -
22/06:30pm 23.0 - - - - SSE 28 32 15 17 1011.3 - -
22/06:29pm 23.0 - - - - SSE 28 - 15 - - 1011.4 -
22/06:00pm 23.1 - - - - SSE 28 33 15 18 1011.0 - -
22/05:30pm 23.2 - - - - SSE 26 30 14 16 1010.8 - -
22/05:29pm 23.2 - - - - SSE 26 - 14 - - 1010.9 -
22/05:00pm 23.8 - - - - SSE 26 32 14 17 1010.3 - -
22/04:30pm 23.6 - - - - SSE 26 30 14 16 1010.0 - -
22/04:29pm 23.7 - - - - SSE 28 - 15 - - 1010.1 -
22/04:00pm 23.7 - - - - SSE 28 32 15 17 1009.9 - -
22/03:30pm 23.6 - - - - SSE 26 30 14 16 1009.9 - -
22/03:29pm 23.6 - - - - SSE 26 - 14 - - 1010.0 -
22/03:00pm 23.7 - - - - SSE 26 32 14 17 1009.8 - -
22/02:30pm 23.4 - - - - S 26 30 14 16 1009.5 - -
22/02:29pm 23.4 - - - - S 26 - 14 - - 1009.6 -
22/02:00pm 23.5 - - - - S 22 26 12 14 1009.6 - -
22/01:30pm 23.7 - - - - S 22 26 12 14 1009.6 - -
22/01:29pm 23.7 - - - - S 22 - 12 - - 1009.7 -
22/01:00pm 23.7 - - - - S 19 20 10 11 1009.9 - -
22/12:30pm 23.5 - - - - S 15 19 8 10 1010.3 - -
22/12:29pm 23.5 - - - - S 15 - 8 - - 1010.4 -
22/12:00pm 23.5 - - - - S 13 17 7 9 1010.6 - -
22/11:30am 23.9 - - - - S 13 17 7 9 1010.7 - -
22/11:29am 23.7 - - - - S 13 - 7 - - 1010.8 -
22/11:00am 23.4 - - - - S 15 19 8 10 1010.9 - -
22/10:30am 23.3 - - - - S 15 20 8 11 1011.0 - -
22/10:29am 23.3 - - - - S 17 - 9 - - 1011.1 -
22/10:00am 23.1 - - - - S 17 20 9 11 1011.2 - -
22/09:30am 23.1 - - - - S 19 20 10 11 1011.5 - -
22/09:29am 22.9 - - - - S 19 - 10 - - 1011.6 -
22/09:00am 23.0 - - - - S 22 26 12 14 1011.5 - -
22/08:30am 23.0 - - - - S 24 28 13 15 1011.5 - -
22/08:29am 22.8 - - - - S 24 - 13 - - 1011.6 -
22/08:00am 23.0 - - - - S 24 28 13 15 1011.4 - -
22/07:30am 22.9 - - - - S 26 30 14 16 1011.4 - -
22/07:29am 22.9 - - - - S 26 - 14 - - 1011.4 -
22/07:00am 22.9 - - - - S 26 32 14 17 1011.1 - -
22/06:30am 22.9 - - - - S 26 30 14 16 1010.9 - -
22/06:29am 23.0 - - - - S 26 - 14 - - 1011.0 -
22/06:00am 22.9 - - - - S 26 30 14 16 1010.5 - -
22/05:30am 23.2 - - - - SSW 22 26 12 14 1010.1 - -
22/05:29am 23.3 - - - - SSW 22 - 12 - - 1010.2 -
22/05:00am 23.2 - - - - SSW 20 26 11 14 1010.1 - -
22/04:30am 23.3 - - - - SSW 20 24 11 13 1010.0 - -
22/04:29am 23.3 - - - - SSW 20 - 11 - - 1010.0 -
22/04:00am 23.2 - - - - SSW 20 24 11 13 1010.0 - -
22/03:30am 23.3 - - - - SSW 20 24 11 13 1009.8 - -
22/03:29am 23.3 - - - - SSW 20 - 11 - - 1009.9 -
22/03:00am 23.4 - - - - SSW 22 24 12 13 1009.9 - -
22/02:30am 23.4 - - - - SSW 20 26 11 14 1010.1 - -
22/02:29am 23.4 - - - - SSW 22 - 12 - - 1010.2 -
22/02:00am 23.3 - - - - SSW 20 26 11 14 1010.3 - -
22/01:30am 23.1 - - - - SSW 20 24 11 13 1010.6 - -
22/01:29am 23.1 - - - - SSW 19 - 10 - - 1010.7 -
22/01:00am 23.1 - - - - SSW 19 22 10 12 1010.9 - -
22/12:30am 23.1 - - - - SSW 19 20 10 11 1011.2 - -
22/12:29am 23.2 - - - - SSW 19 - 10 - - 1011.3 -
22/12:00am 23.3 - - - - S 13 15 7 8 1011.0 - -
 
Date/Time
EST
Temp
°C
App
Temp
°C
Dew
Point
°C
Rel
Hum
%
Delta-T
°C
Wind Press
QNH
hPa
Press
MSL
hPa
Rain since
9am
mm
Dir  Spd
km/h
Gust
km/h
Spd
kts
Gust
kts
21/11:30pm 23.3 - - - - SSW 13 15 7 8 1011.7 - -
21/11:29pm 23.3 - - - - SSW 13 - 7 - - 1011.8 -
21/11:00pm 23.4 - - - - WNW 11 19 6 10 1011.7 - -
21/10:30pm 23.5 - - - - SW 11 15 6 8 1012.7 - -
21/10:29pm 23.5 - - - - SSW 11 - 6 - - 1012.8 -
21/10:00pm 23.6 - - - - WSW 9 13 5 7 1012.6 - -
21/09:30pm 23.5 - - - - CALM 0 0 0 0 1012.2 - -
21/09:29pm 23.6 - - - - CALM 0 - 0 - - 1012.3 -
21/09:00pm 23.8 - - - - CALM 0 0 0 0 1012.1 - -
21/08:30pm 23.9 - - - - ENE 6 9 3 5 1011.9 - -
21/08:29pm 23.9 - - - - ENE 6 - 3 - - 1012.0 -
21/08:00pm 24.0 - - - - ENE 17 22 9 12 1011.6 - -
21/07:30pm 24.0 - - - - ENE 19 22 10 12 1011.3 - -
21/07:29pm 24.0 - - - - ENE 19 - 10 - - 1011.4 -
21/07:00pm 24.0 - - - - E 7 9 4 5 1012.1 - -
21/06:30pm 24.0 - - - - ESE 7 9 4 5 1011.8 - -
21/06:29pm 24.0 - - - - ESE 7 - 4 - - 1011.9 -
21/06:00pm 24.0 - - - - SSE 7 11 4 6 1012.1 - -
21/05:30pm 23.9 - - - - S 11 13 6 7 1011.8 - -
21/05:29pm 23.9 - - - - S 11 - 6 - - 1011.9 -
21/05:00pm 24.0 - - - - S 9 13 5 7 1011.4 - -
21/04:30pm 24.0 - - - - S 13 15 7 8 1011.5 - -
21/04:29pm 24.0 - - - - S 13 - 7 - - 1011.6 -
21/04:00pm 24.3 - - - - S 9 13 5 7 1011.6 - -
21/03:30pm 24.6 - - - - SSW 7 9 4 5 1011.3 - -
21/03:29pm 24.6 - - - - SSW 7 - 4 - - 1011.5 -
21/03:00pm 24.8 - - - - S 6 9 3 5 1011.6 - -
21/02:30pm 25.3 - - - - CALM 0 0 0 0 1011.8 - -
21/02:29pm 25.3 - - - - CALM 0 - 0 - - 1011.9 -
21/02:00pm 26.6 - - - - CALM 0 0 0 0 1012.1 - -
21/01:30pm 25.2 - - - - CALM 0 0 0 0 1012.3 - -
21/01:29pm 25.0 - - - - CALM 0 - 0 - - 1012.4 -
21/01:00pm 25.6 - - - - CALM 0 0 0 0 1012.6 - -
21/12:30pm 26.2 - - - - CALM 0 0 0 0 1012.9 - -
21/12:29pm 25.9 - - - - CALM 0 - 0 - - 1013.0 -
21/12:00pm 26.3 - - - - ESE 6 7 3 4 1013.3 - -
21/11:30am 24.5 - - - - E 7 11 4 6 1013.6 - -
21/11:29am 24.3 - - - - E 7 - 4 - - 1013.7 -
21/11:00am 24.5 - - - - ESE 7 11 4 6 1013.9 - -
21/10:30am 24.9 - - - - E 7 9 4 5 1014.1 - -
21/10:29am 24.6 - - - - E 7 - 4 - - 1014.2 -
21/10:00am 24.1 - - - - E 9 13 5 7 1014.3 - -
21/09:30am 24.3 - - - - E 9 13 5 7 1014.3 - -
21/09:29am 24.1 - - - - E 9 - 5 - - 1014.4 -
21/09:00am 24.2 - - - - E 11 13 6 7 1014.4 - -
21/08:30am 23.8 - - - - E 15 19 8 10 1014.4 - -
21/08:29am 23.9 - - - - E 15 - 8 - - 1014.5 -
21/08:00am 24.3 - - - - E 9 11 5 6 1014.5 - -
21/07:30am 24.2 - - - - E 13 17 7 9 1014.5 - -
21/07:29am 24.1 - - - - E 13 - 7 - - 1014.6 -
21/07:00am 24.1 - - - - E 11 13 6 7 1014.4 - -
21/06:30am 24.2 - - - - E 9 11 5 6 1014.2 - -
21/06:29am 24.1 - - - - E 9 - 5 - - 1014.3 -
21/06:00am 23.9 - - - - E 9 13 5 7 1013.9 - -
21/05:30am 23.6 - - - - E 11 13 6 7 1013.9 - -
21/05:29am 23.6 - - - - E 11 - 6 - - 1013.9 -
21/05:00am 23.5 - - - - ENE 13 17 7 9 1013.7 - -
21/04:30am 23.6 - - - - E 15 17 8 9 1013.7 - -
21/04:29am 23.5 - - - - E 15 - 8 - - 1013.8 -
21/04:00am 23.6 - - - - E 15 17 8 9 1013.6 - -
21/03:30am 23.6 - - - - E 15 17 8 9 1013.5 - -
21/03:29am 23.6 - - - - E 15 - 8 - - 1013.6 -
21/03:00am 23.6 - - - - E 19 20 10 11 1013.6 - -
21/02:30am 23.7 - - - - E 20 26 11 14 1013.7 - -
21/02:29am 23.7 - - - - E 20 - 11 - - 1013.8 -
21/02:00am 23.7 - - - - E 19 24 10 13 1013.9 - -
21/01:30am 23.7 - - - - E 20 26 11 14 1014.1 - -
21/01:29am 23.7 - - - - E 20 - 11 - - 1014.2 -
21/01:00am 23.7 - - - - E 22 28 12 15 1014.3 - -
21/12:30am 23.8 - - - - E 20 26 11 14 1014.7 - -
21/12:29am 23.8 - - - - E 20 - 11 - - 1014.8 -
21/12:00am 23.7 - - - - E 22 26 12 14 1015.2 - -
 
Date/Time
EST
Temp
°C
App
Temp
°C
Dew
Point
°C
Rel
Hum
%
Delta-T
°C
Wind Press
QNH
hPa
Press
MSL
hPa
Rain since
9am
mm
Dir  Spd
km/h
Gust
km/h
Spd
kts
Gust
kts
20/11:30pm 23.8 - - - - E 24 28 13 15 1015.6 - -
20/11:29pm 23.8 - - - - E 24 - 13 - - 1015.7 -
20/11:00pm 23.7 - - - - E 24 28 13 15 1015.9 - -
20/10:30pm 23.9 - - - - E 26 28 14 15 1016.1 - -
20/10:29pm 23.9 - - - - E 26 - 14 - - 1016.2 -
20/10:00pm 23.9 - - - - ESE 22 26 12 14 1016.4 - -
20/09:30pm 23.9 - - - - ESE 26 30 14 16 1016.5 - -
20/09:29pm 23.9 - - - - ESE 26 - 14 - - 1016.6 -
20/09:00pm 23.9 - - - - ESE 26 30 14 16 1016.4 - -
20/08:30pm 23.9 - - - - ESE 26 30 14 16 1016.5 - -
20/08:29pm 23.9 - - - - ESE 26 - 14 - - 1016.6 -
20/08:00pm 23.9 - - - - ESE 24 28 13 15 1016.5 - -
20/07:30pm 23.9 - - - - ESE 22 26 12 14 1016.5 - -
20/07:29pm 23.9 - - - - ESE 22 - 12 - - 1016.6 -
20/07:00pm 23.8 - - - - ESE 22 24 12 13 1016.5 - -
20/06:30pm 23.8 - - - - ESE 24 28 13 15 1016.3 - -
20/06:29pm 23.9 - - - - ESE 24 - 13 - - 1016.4 -
20/06:00pm 23.8 - - - - ESE 26 28 14 15 1016.1 - -
20/05:30pm 24.0 - - - - ESE 26 30 14 16 1015.9 - -
20/05:29pm 24.1 - - - - ESE 26 - 14 - - 1016.0 -
20/05:00pm 24.3 - - - - SE 26 28 14 15 1015.8 - -
20/04:30pm 24.3 - - - - ESE 24 28 13 15 1015.8 - -
20/04:29pm 24.3 - - - - ESE 24 - 13 - - 1015.9 -
20/04:00pm 24.4 - - - - ESE 26 30 14 16 1015.7 - -
20/03:30pm 24.6 - - - - SE 24 28 13 15 1015.7 - -
20/03:29pm 24.6 - - - - SE 24 - 13 - - 1015.8 -
20/03:00pm 24.7 - - - - SE 22 26 12 14 1015.9 - -
20/02:30pm 24.4 - - - - ESE 24 26 13 14 1016.1 - -
20/02:29pm 24.5 - - - - ESE 24 - 13 - - 1016.2 -
20/02:00pm 24.7 - - - - SE 24 30 13 16 1016.6 - -
20/01:30pm 24.7 - - - - SE 24 28 13 15 1017.0 - -
20/01:29pm 24.6 - - - - SE 24 - 13 - - 1017.1 -
20/01:00pm 24.6 - - - - SE 24 28 13 15 1017.3 - -
20/12:30pm 24.6 - - - - SE 26 32 14 17 1017.6 - -
20/12:29pm 24.5 - - - - SE 26 - 14 - - 1017.7 -
20/12:00pm 24.4 - - - - ESE 28 32 15 17 1017.7 - -
20/11:30am 24.3 - - - - ESE 28 33 15 18 1018.0 - -
20/11:29am 24.4 - - - - ESE 28 - 15 - - 1018.1 -
20/11:00am 24.4 - - - - ESE 28 32 15 17 1018.2 - -
20/10:30am 24.3 - - - - SE 30 35 16 19 1018.4 - -
20/10:29am 24.3 - - - - SE 30 - 16 - - 1018.5 -
20/10:00am 24.4 - - - - SE 30 33 16 18 1018.5 - -
20/09:30am 24.3 - - - - SE 32 35 17 19 1018.6 - -
20/09:29am 24.3 - - - - SE 32 - 17 - - 1018.7 -
20/09:00am 24.3 - - - - SE 32 35 17 19 1018.8 - -

Other Formats:

Comma delimited format used in spreadsheet applications
http://www.bom.gov.au/fwo/IDQ60801/IDQ60801.94379.axf

JavaScript Object Notation format (JSON) in row-major order
http://www.bom.gov.au/fwo/IDQ60801/IDQ60801.94379.json